Charlevoix, MI

5:34 PM EDT on August 20, 2017 (GMT -0400)
Charlevoix Municipal

Weather History for KCVX - November, 2012

Change the Weather History Date:

Saturday, November 24, 2012

  Actual Average Record
Temperature  
Mean Temperature 30 °F -  
Max Temperature 32 °F 37 °F 62 °F (2001)
Min Temperature 29 °F 31 °F 12 °F (2005)
Degree Days  
Heating Degree Days 34    
Moisture  
Dew Point 21 °F    
Average Humidity 68    
Maximum Humidity 83    
Minimum Humidity 62    
Precipitation  
Precipitation 0.00 in - - ()
Sea Level Pressure  
Sea Level Pressure 30.05 in    
Wind  
Wind Speed 17 mph (NW)    
Max Wind Speed 23 mph    
Max Gust Speed 38 mph    
Visibility 10 miles    
Events Snow    
Averages and records for this station are not official NWS values.
T = Trace of Precipitation, MM = Missing Value Source: NWS Daily Summary

Daily Weather History Graph

Daily Weather History Graph

Search for Another Location

Airport or City:

Trip Planner

Search our weather history database for the weather conditions in past years. The results will help you decide how hot, cold, wet, or windy it might be!

Date:

Astronomy

Nov. 24, 2012 Rise Set
Actual Time 7:52 AM EST 5:03 PM EST
Civil Twilight 7:19 AM EST 5:36 PM EST
Nautical Twilight 6:42 AM EST 6:12 PM EST
Astronomical Twilight 6:07 AM EST 6:47 PM EST
Moon 2:54 PM EST (11/24) 4:00 AM EST (11/24)
Length of Visible Light 10h 16m
Length of Day
9h 11m
Waxing Gibbous, 87% of the Moon is Illuminated
Nov 24
Waxing Gibbous
Nov 28
Full
Dec 6
Last Quarter
Dec 13
New
Dec 20
First Quarter

Hourly Weather History & Observations

Time (EST) Temp. Windchill Dew Point Humidity Pressure Visibility Wind Dir Wind Speed Gust Speed Precip Events Conditions
12:15 AM 32.0 °F 19.2 °F 22.8 °F 69% 29.99 in 10.0 mi NNW 23.0 mph 38.0 mph N/A   Overcast
12:34 AM 32.0 °F 19.5 °F 23.4 °F 70% 29.99 in 10.0 mi NNW 21.9 mph 27.6 mph N/A   Overcast
12:54 AM 31.8 °F 19.0 °F 23.7 °F 72% 30.00 in 7.0 mi NNW 23.0 mph 29.9 mph N/A Snow Light Snow
1:15 AM 32.0 °F 19.5 °F 22.8 °F 69% 30.00 in 10.0 mi NNW 21.9 mph 28.8 mph N/A   Overcast
1:34 AM 31.8 °F 19.6 °F 23.0 °F 70% 30.00 in 10.0 mi NNW 20.7 mph 29.9 mph N/A   Overcast
1:55 AM 31.6 °F 19.7 °F 21.7 °F 67% 30.00 in 10.0 mi NNW 19.6 mph 31.1 mph N/A   Overcast
2:14 AM 31.8 °F 19.0 °F 22.3 °F 68% 30.01 in 10.0 mi NW 23.0 mph 33.4 mph N/A   Overcast
2:35 AM 31.8 °F 19.6 °F 22.6 °F 69% 30.02 in 7.0 mi NW 20.7 mph 33.4 mph N/A   Overcast
2:54 AM 31.6 °F 19.7 °F 21.2 °F 65% 30.02 in 10.0 mi NNW 19.6 mph 27.6 mph N/A   Overcast
3:15 AM 31.1 °F 18.3 °F 22.3 °F 70% 30.03 in 10.0 mi NNW 21.9 mph 28.8 mph N/A   Overcast
3:34 AM 31.3 °F 18.5 °F 21.4 °F 67% 30.03 in 10.0 mi NNW 21.9 mph 31.1 mph N/A   Overcast
3:55 AM 31.3 °F 19.5 °F 21.6 °F 67% 30.03 in 10.0 mi NNW 18.4 mph 27.6 mph N/A   Overcast
4:14 AM 31.5 °F 19.4 °F 21.2 °F 66% 30.03 in 10.0 mi NNW 19.6 mph 28.8 mph N/A   Overcast
4:35 AM 31.1 °F 18.3 °F 23.4 °F 73% 30.04 in 7.0 mi NW 21.9 mph 28.8 mph N/A Snow Light Snow
4:55 AM 29.7 °F 17.4 °F 25.0 °F 83% 30.05 in 2.0 mi NW 18.4 mph 28.8 mph N/A Snow Light Snow
5:15 AM 30.7 °F 17.5 °F 21.6 °F 69% 30.04 in 4.0 mi NW 23.0 mph 32.2 mph N/A Snow Light Snow
5:34 AM 30.9 °F 19.1 °F 20.5 °F 65% 30.05 in 10.0 mi NW 18.4 mph 29.9 mph N/A   Overcast
5:55 AM 30.4 °F 18.4 °F 20.7 °F 67% 30.05 in 7.0 mi NW 18.4 mph 31.1 mph N/A   Overcast
6:14 AM 30.2 °F 17.8 °F 21.4 °F 70% 30.05 in 7.0 mi NW 19.6 mph 26.5 mph N/A Snow Light Snow
6:34 AM 30.2 °F 17.4 °F 19.6 °F 65% 30.06 in 10.0 mi NNW 20.7 mph 26.5 mph N/A Snow Light Snow
6:55 AM 30.4 °F 18.0 °F 19.4 °F 64% 30.07 in 10.0 mi NNW 19.6 mph 28.8 mph N/A   Overcast
7:15 AM 30.2 °F 19.8 °F 18.7 °F 62% 30.07 in 10.0 mi NNW 13.8 mph 28.8 mph N/A   Overcast
7:35 AM 30.2 °F 17.4 °F 19.6 °F 65% 30.08 in 10.0 mi NNW 20.7 mph 25.3 mph N/A   Overcast
7:54 AM 30.2 °F 18.1 °F 19.8 °F 65% 30.08 in 10.0 mi NW 18.4 mph 26.5 mph N/A   Overcast
8:15 AM 30.0 °F 18.7 °F 19.8 °F 66% 30.09 in 10.0 mi NNW 16.1 mph 21.9 mph N/A   Overcast
8:35 AM 29.7 °F 17.4 °F 19.6 °F 66% 30.09 in 10.0 mi NW 18.4 mph 29.9 mph N/A   Overcast
8:55 AM 29.5 °F 16.5 °F 19.6 °F 67% 30.10 in 10.0 mi NW 20.7 mph 27.6 mph N/A   Overcast
9:15 AM 29.3 °F 19.1 °F 19.0 °F 66% 30.10 in 10.0 mi NW 12.7 mph 26.5 mph N/A   Overcast
9:35 AM 29.3 °F 17.7 °F 18.9 °F 65% 30.11 in 10.0 mi NW 16.1 mph 23.0 mph N/A   Overcast
9:55 AM 29.5 °F 18.8 °F 19.4 °F 66% 30.11 in 10.0 mi NNW 13.8 mph 21.9 mph N/A   Overcast
10:15 AM 29.5 °F 17.2 °F 19.2 °F 66% 30.11 in 10.0 mi NW 18.4 mph 25.3 mph N/A   Overcast
10:34 AM 29.3 °F 17.3 °F 19.4 °F 67% 30.12 in 10.0 mi NNW 17.3 mph 23.0 mph N/A   Overcast
10:55 AM 29.3 °F 17.3 °F 19.6 °F 67% 30.12 in 10.0 mi NNW 17.3 mph 23.0 mph N/A   Overcast
11:15 AM 29.5 °F 18.0 °F 19.9 °F 68% 30.11 in 10.0 mi NW 16.1 mph 23.0 mph N/A   Overcast
11:34 AM 29.5 °F 19.9 °F 19.9 °F 68% 30.11 in 10.0 mi NW 11.5 mph 17.3 mph N/A   Overcast
11:55 AM 29.3 °F 19.6 °F 20.8 °F 71% 30.10 in 10.0 mi NNW 11.5 mph 18.4 mph N/A   Overcast
12:15 PM 29.7 °F 18.2 °F 20.5 °F 69% 30.10 in 10.0 mi NW 16.1 mph 20.7 mph N/A   Overcast
12:34 PM 29.7 °F 20.7 °F 20.5 °F 69% 30.09 in 10.0 mi NNW 10.4 mph 16.1 mph N/A   Overcast
12:55 PM 29.8 °F 18.9 °F 19.6 °F 66% 30.09 in 10.0 mi NW 15.0 mph - N/A   Overcast
1:15 PM 29.7 °F 19.6 °F 18.9 °F 64% 30.09 in 10.0 mi NNW 12.7 mph 21.9 mph N/A   Overcast
1:35 PM 29.7 °F 19.1 °F 19.9 °F 67% 30.09 in 10.0 mi NW 13.8 mph 20.7 mph N/A   Overcast
1:55 PM 30.0 °F 20.5 °F 19.4 °F 65% 30.09 in 10.0 mi NW 11.5 mph 21.9 mph N/A   Overcast
2:14 PM 29.8 °F 22.2 °F 19.9 °F 67% 30.08 in 10.0 mi NW 8.1 mph 18.4 mph N/A   Overcast
2:35 PM 30.0 °F 20.5 °F 20.8 °F 69% 30.08 in 10.0 mi NW 11.5 mph 17.3 mph N/A   Overcast
2:55 PM 30.2 °F 20.2 °F 20.8 °F 68% 30.08 in 10.0 mi NNW 12.7 mph 16.1 mph N/A   Overcast
3:15 PM 30.6 °F 20.7 °F 19.9 °F 65% 30.07 in 10.0 mi NNW 12.7 mph 16.1 mph N/A   Overcast
3:35 PM 30.6 °F 21.2 °F 19.9 °F 65% 30.07 in 10.0 mi NW 11.5 mph 17.3 mph N/A   Overcast
3:55 PM 30.7 °F 22.6 °F 21.2 °F 68% 30.07 in 10.0 mi NW 9.2 mph 16.1 mph N/A   Overcast
4:15 PM 30.6 °F 22.4 °F 21.4 °F 69% 30.06 in 10.0 mi NNW 9.2 mph - N/A   Overcast
4:35 PM 30.6 °F 22.4 °F 21.7 °F 70% 30.07 in 10.0 mi NW 9.2 mph - N/A   Overcast
4:55 PM 30.7 °F 22.6 °F 21.9 °F 70% 30.07 in 10.0 mi NW 9.2 mph - N/A   Overcast
5:14 PM 30.6 °F 23.1 °F 21.9 °F 70% 30.06 in 10.0 mi NW 8.1 mph - N/A   Overcast
5:35 PM 30.6 °F 23.1 °F 22.5 °F 72% 30.05 in 10.0 mi NNW 8.1 mph - N/A   Overcast
5:55 PM 30.7 °F 27.3 °F 22.8 °F 72% 30.05 in 10.0 mi NW 3.5 mph - N/A   Overcast
6:15 PM 31.1 °F 24.5 °F 23.5 °F 74% 30.04 in 10.0 mi NW 6.9 mph - N/A   Overcast
6:35 PM 31.3 °F 26.6 °F 23.5 °F 73% 30.04 in 10.0 mi West 4.6 mph - N/A   Overcast
6:55 PM 31.1 °F 24.5 °F 22.8 °F 71% 30.03 in 10.0 mi West 6.9 mph - N/A   Overcast
7:14 PM 31.6 °F 27.0 °F 22.8 °F 70% 30.02 in 10.0 mi West 4.6 mph - N/A   Overcast
7:35 PM 31.6 °F 27.0 °F 22.3 °F 68% 30.02 in 10.0 mi West 4.6 mph - N/A   Overcast
7:54 PM 31.3 °F 25.6 °F 22.1 °F 69% 30.01 in 10.0 mi WSW 5.8 mph - N/A   Overcast
8:15 PM 31.5 °F 25.8 °F 21.2 °F 66% 30.01 in 10.0 mi West 5.8 mph - N/A   Overcast
8:34 PM 31.6 °F 25.1 °F 21.9 °F 67% 30.00 in 10.0 mi West 6.9 mph - N/A   Overcast
8:55 PM 31.6 °F 24.4 °F 22.5 °F 69% 30.00 in 10.0 mi West 8.1 mph - N/A   Overcast
9:14 PM 31.6 °F 23.7 °F 22.3 °F 68% 30.00 in 10.0 mi WSW 9.2 mph - N/A   Overcast
9:35 PM 31.6 °F 24.4 °F 20.7 °F 64% 29.99 in 10.0 mi West 8.1 mph - N/A   Overcast
9:55 PM 31.3 °F 24.7 °F 20.8 °F 65% 29.97 in 10.0 mi SW 6.9 mph - N/A   Overcast
10:15 PM 31.1 °F 26.4 °F 21.4 °F 67% 29.97 in 10.0 mi SW 4.6 mph - N/A   Overcast
10:35 PM 31.1 °F 23.1 °F 21.9 °F 69% 29.97 in 10.0 mi SW 9.2 mph - N/A   Overcast
10:55 PM 30.9 °F 23.5 °F 21.4 °F 68% 29.96 in 10.0 mi SW 8.1 mph - N/A   Overcast
11:15 PM 30.6 °F 23.1 °F 22.1 °F 71% 29.96 in 10.0 mi SW 8.1 mph - N/A   Overcast
11:34 PM 30.6 °F 22.4 °F 21.7 °F 70% 29.96 in 10.0 mi SSW 9.2 mph - N/A   Overcast
11:55 PM 30.6 °F 23.1 °F 21.9 °F 70% 29.95 in 10.0 mi SSW 8.1 mph - N/A   Overcast